Time;durP1;ratioP1;P1;durP2;ratioP2;P2;SDS_P1;SDS_P2;PMS_P1;PMS_P2;Temp;Humidity;BMP_temperature;BMP_pressure;BME280_temperature;BME280_humidity;BME280_pressure;Samples;Min_cycle;Max_cycle;Signal;HPM_P1;HPM_P2
2023/06/14 00:01:34;;;;;;;10.05;6.15;;;;;;;18.95;100.00;101234.72;5266556;28;20034;-68
2023/06/14 00:04:08;;;;;;;8.02;5.75;;;;;;;18.93;100.00;101239.44;5267815;28;20047;-68
2023/06/14 00:06:41;;;;;;;9.52;5.70;;;;;;;18.89;100.00;101235.38;5257753;28;20155;-68
2023/06/14 00:09:13;;;;;;;10.00;6.03;;;;;;;18.83;100.00;101240.56;5263800;28;20040;-68
2023/06/14 00:11:44;;;;;;;8.70;5.82;;;;;;;18.92;100.00;101245.00;5264104;28;20453;-68
2023/06/14 00:14:16;;;;;;;9.63;6.30;;;;;;;18.78;100.00;101236.44;5262915;28;20032;-68
2023/06/14 00:16:47;;;;;;;8.07;5.88;;;;;;;18.88;100.00;101240.94;5255465;28;20736;-68
2023/06/14 00:19:19;;;;;;;9.80;6.32;;;;;;;18.75;100.00;101238.63;5261509;28;20082;-68
2023/06/14 00:21:52;;;;;;;8.35;5.60;;;;;;;18.70;100.00;101251.81;5259847;28;20440;-68
2023/06/14 00:24:24;;;;;;;7.60;5.57;;;;;;;18.68;100.00;101251.97;5262529;28;20028;-68
2023/06/14 00:26:55;;;;;;;12.23;6.15;;;;;;;18.61;100.00;101249.03;5265893;28;20493;-68
2023/06/14 00:29:27;;;;;;;8.73;5.53;;;;;;;18.57;100.00;101244.97;5271251;28;20123;-68
2023/06/14 00:31:58;;;;;;;9.23;5.70;;;;;;;18.54;100.00;101249.84;5266209;28;20521;-68
2023/06/14 00:34:29;;;;;;;9.75;5.47;;;;;;;18.55;100.00;101244.28;5267731;28;20083;-68
2023/06/14 00:37:01;;;;;;;10.07;5.78;;;;;;;18.49;100.00;101246.78;5261968;28;20331;-68
2023/06/14 00:39:32;;;;;;;10.65;5.63;;;;;;;18.55;100.00;101249.69;5270427;28;20024;-68
2023/06/14 00:42:05;;;;;;;11.45;5.93;;;;;;;18.42;100.00;101252.78;5268289;28;20398;-69
2023/06/14 00:44:37;;;;;;;8.88;5.63;;;;;;;18.43;100.00;101245.56;5269183;28;20064;-68
2023/06/14 00:47:08;;;;;;;8.15;5.53;;;;;;;18.36;100.00;101252.59;5265626;28;20117;-68
2023/06/14 00:49:40;;;;;;;9.32;5.78;;;;;;;18.37;100.00;101251.56;5259374;28;20028;-68
2023/06/14 00:52:12;;;;;;;9.88;5.47;;;;;;;18.30;100.00;101253.25;5259561;28;20064;-68
2023/06/14 00:54:43;;;;;;;10.95;6.18;;;;;;;18.21;100.00;101252.31;5260358;28;20091;-68
2023/06/14 00:57:16;;;;;;;9.88;5.30;;;;;;;18.19;100.00;101249.75;5264834;28;20044;-69
2023/06/14 00:59:48;;;;;;;8.75;5.57;;;;;;;18.16;100.00;101250.09;5264178;28;20032;-68
2023/06/14 01:02:20;;;;;;;8.80;5.00;;;;;;;18.12;100.00;101251.41;5262090;28;20102;-68
2023/06/14 01:04:52;;;;;;;8.90;5.55;;;;;;;18.11;100.00;101249.72;5262923;28;20025;-68
2023/06/14 01:08:09;;;;;;;7.65;5.53;;;;;;;18.15;100.00;101256.50;5266057;28;20413;-68
2023/06/14 01:10:52;;;;;;;8.35;5.30;;;;;;;17.97;100.00;101253.00;5268954;28;20490;-68
2023/06/14 01:13:51;;;;;;;7.82;5.78;;;;;;;18.02;100.00;101253.34;5268800;28;20028;-69
2023/06/14 01:16:23;;;;;;;7.97;5.40;;;;;;;17.85;100.00;101254.22;5272711;28;20490;-68
2023/06/14 01:18:56;;;;;;;8.73;5.80;;;;;;;17.86;100.00;101248.66;5263698;28;20032;-68
2023/06/14 01:21:28;;;;;;;9.82;5.35;;;;;;;17.80;100.00;101250.09;5265532;28;20086;-68
2023/06/14 01:24:03;;;;;;;9.70;5.30;;;;;;;17.78;100.00;101240.47;5261112;28;20032;-68
2023/06/14 01:26:37;;;;;;;7.88;5.50;;;;;;;17.71;100.00;101259.13;5264860;28;20127;-68
2023/06/14 01:29:11;;;;;;;9.20;4.90;;;;;;;17.69;100.00;101253.03;5268295;28;20068;-68
2023/06/14 01:31:42;;;;;;;7.47;5.13;;;;;;;17.59;100.00;101261.19;5260342;28;20367;-68
2023/06/14 01:34:14;;;;;;;8.57;4.95;;;;;;;17.53;100.00;101255.59;5259669;28;20040;-68
2023/06/14 01:36:47;;;;;;;8.45;5.00;;;;;;;17.44;100.00;101252.78;5262607;28;20024;-68
2023/06/14 01:39:19;;;;;;;7.73;4.47;;;;;;;17.44;100.00;101252.78;5262113;28;20097;-68
2023/06/14 01:41:52;;;;;;;8.52;4.65;;;;;;;17.44;100.00;101255.47;5266128;28;21966;-68
2023/06/14 01:44:24;;;;;;;8.55;4.45;;;;;;;17.47;100.00;101261.56;5263877;28;20018;-68
2023/06/14 01:46:57;;;;;;;7.32;4.90;;;;;;;17.37;100.00;101254.41;5263309;28;20021;-69
2023/06/14 01:49:28;;;;;;;9.05;4.47;;;;;;;17.34;100.00;101253.84;5258703;28;20021;-68
2023/06/14 01:52:00;;;;;;;6.85;4.47;;;;;;;17.45;100.00;101259.03;5261474;28;20032;-68
2023/06/14 01:54:31;;;;;;;6.50;4.50;;;;;;;17.33;100.00;101255.69;5256322;28;20483;-68
2023/06/14 01:57:03;;;;;;;9.52;4.45;;;;;;;17.30;100.00;101245.22;5257779;28;20028;-68
2023/06/14 01:59:35;;;;;;;6.70;3.80;;;;;;;17.20;100.00;101239.88;5258875;28;20024;-68
2023/06/14 02:02:06;;;;;;;8.57;4.50;;;;;;;17.20;100.00;101258.75;5267502;28;20174;-68
2023/06/14 02:04:37;;;;;;;8.73;4.07;;;;;;;17.18;100.00;101249.09;5268964;28;20067;-69
2023/06/14 02:07:09;;;;;;;7.35;4.15;;;;;;;17.12;100.00;101249.72;5261862;28;20040;-68
2023/06/14 02:09:41;;;;;;;7.88;4.10;;;;;;;17.05;100.00;101244.94;5267612;28;20036;-68
2023/06/14 02:12:12;;;;;;;6.30;4.45;;;;;;;17.05;100.00;101252.16;5263554;28;20410;-68
2023/06/14 02:14:44;;;;;;;6.72;4.15;;;;;;;17.04;100.00;101256.69;5263019;28;20522;-69
2023/06/14 02:17:15;;;;;;;14.27;5.00;;;;;;;17.00;100.00;101249.91;5263327;28;20103;-68
2023/06/14 02:19:47;;;;;;;7.22;4.40;;;;;;;17.16;100.00;101251.09;5262719;28;20090;-67
2023/06/14 02:22:20;;;;;;;7.03;4.65;;;;;;;16.97;100.00;101250.22;5260442;28;20024;-68
2023/06/14 02:24:52;;;;;;;7.05;4.45;;;;;;;16.96;100.00;101259.28;5258846;28;20065;-68
2023/06/14 02:27:23;;;;;;;7.70;4.38;;;;;;;16.94;100.00;101255.06;5265008;28;20405;-68
2023/06/14 02:29:55;;;;;;;8.38;4.50;;;;;;;16.92;100.00;101257.91;5266745;28;20051;-68
2023/06/14 02:32:29;;;;;;;8.25;4.53;;;;;;;16.85;100.00;101254.09;5265932;28;20085;-68
2023/06/14 02:35:02;;;;;;;8.00;4.15;;;;;;;16.86;100.00;101263.91;5263745;28;20052;-68
2023/06/14 02:37:33;;;;;;;6.85;4.60;;;;;;;16.84;100.00;101264.03;5266760;28;20120;-68
2023/06/14 02:40:06;;;;;;;6.93;4.45;;;;;;;16.85;100.00;101267.56;5268014;28;20021;-68
2023/06/14 02:42:37;;;;;;;8.18;4.47;;;;;;;16.72;100.00;101264.31;5265792;28;20036;-68
2023/06/14 02:45:09;;;;;;;7.85;4.20;;;;;;;16.63;100.00;101269.59;5264511;28;20028;-68
2023/06/14 02:47:40;;;;;;;10.35;4.75;;;;;;;16.59;100.00;101265.50;5263828;28;20036;-68
2023/06/14 02:50:11;;;;;;;9.13;4.30;;;;;;;16.65;100.00;101264.91;5270330;28;20047;-68
2023/06/14 02:52:44;;;;;;;5.95;4.18;;;;;;;16.52;100.00;101269.78;5267895;28;20551;-68
2023/06/14 02:55:16;;;;;;;6.35;4.30;;;;;;;16.50;100.00;101274.47;5267737;28;20028;-68
2023/06/14 02:57:48;;;;;;;6.88;4.57;;;;;;;16.57;100.00;101263.97;5256037;28;20443;-68
2023/06/14 03:00:19;;;;;;;9.27;5.18;;;;;;;16.55;100.00;101269.50;5261668;28;20035;-68
2023/06/14 03:02:51;;;;;;;9.55;4.45;;;;;;;16.61;100.00;101268.06;5258177;28;20031;-68
2023/06/14 03:05:23;;;;;;;9.35;4.85;;;;;;;16.40;100.00;101269.09;5266515;28;20032;-68
2023/06/14 03:07:55;;;;;;;7.05;4.40;;;;;;;16.41;100.00;101278.03;5265821;28;20414;-68
2023/06/14 03:10:28;;;;;;;7.93;4.78;;;;;;;16.31;100.00;101279.91;5268859;28;20028;-68
2023/06/14 03:13:01;;;;;;;7.82;4.35;;;;;;;16.42;100.00;101274.34;5267498;28;20043;-68
2023/06/14 03:15:33;;;;;;;8.57;4.25;;;;;;;16.36;100.00;101285.72;5267172;28;20024;-67
2023/06/14 03:18:04;;;;;;;7.72;4.78;;;;;;;16.32;100.00;101287.84;5265953;28;20497;-68
2023/06/14 03:20:36;;;;;;;10.32;4.55;;;;;;;16.23;100.00;101281.44;5264923;28;20052;-68
2023/06/14 03:23:07;;;;;;;9.68;5.10;;;;;;;16.28;100.00;101281.03;5262943;28;20101;-68
2023/06/14 03:25:41;;;;;;;6.90;4.80;;;;;;;16.07;100.00;101284.75;5265399;28;20052;-68
2023/06/14 03:28:13;;;;;;;8.70;4.53;;;;;;;16.07;100.00;101292.81;5266991;28;20067;-68
2023/06/14 03:30:44;;;;;;;9.02;4.57;;;;;;;16.01;100.00;101288.00;5264190;28;20406;-68
2023/06/14 03:33:16;;;;;;;9.60;5.30;;;;;;;16.00;100.00;101288.97;5267197;28;20077;-68
2023/06/14 03:35:48;;;;;;;7.18;4.45;;;;;;;15.88;100.00;101296.34;5264101;28;20036;-68
2023/06/14 03:38:19;;;;;;;8.68;4.50;;;;;;;15.92;100.00;101288.00;5264694;28;20036;-68
2023/06/14 03:40:51;;;;;;;11.63;5.15;;;;;;;15.98;100.00;101295.50;5265930;28;20051;-68
2023/06/14 03:43:22;;;;;;;7.63;4.65;;;;;;;15.84;100.00;101294.94;5264652;28;20089;-68
2023/06/14 03:45:53;;;;;;;7.28;4.85;;;;;;;15.87;100.00;101293.78;5260405;28;20067;-68
2023/06/14 03:48:25;;;;;;;7.38;4.18;;;;;;;15.80;100.00;101303.41;5270689;28;20020;-68
2023/06/14 03:50:56;;;;;;;9.65;5.00;;;;;;;15.82;100.00;101296.91;5264329;28;20410;-68
2023/06/14 03:53:29;;;;;;;10.80;5.20;;;;;;;15.71;100.00;101301.56;5261726;28;20125;-67
2023/06/14 03:56:00;;;;;;;10.20;4.95;;;;;;;15.70;100.00;101298.00;5268115;28;20145;-68
2023/06/14 03:58:32;;;;;;;13.18;4.97;;;;;;;15.66;100.00;101301.94;5263852;28;20130;-68
2023/06/14 04:01:03;;;;;;;10.32;5.25;;;;;;;15.62;100.00;101303.22;5262533;28;20159;-68
2023/06/14 04:03:35;;;;;;;8.95;5.03;;;;;;;15.65;100.00;101305.66;5266123;28;20033;-69
2023/06/14 04:06:07;;;;;;;9.73;5.10;;;;;;;15.56;100.00;101301.94;5264561;28;20140;-68
2023/06/14 04:08:39;;;;;;;9.82;5.05;;;;;;;15.58;100.00;101305.34;5261962;28;20127;-68
2023/06/14 04:11:11;;;;;;;8.15;5.28;;;;;;;15.57;100.00;101308.16;5270893;28;20123;-69
2023/06/14 04:13:42;;;;;;;13.50;5.40;;;;;;;15.57;100.00;101310.84;5266942;28;20516;-67
2023/06/14 04:16:14;;;;;;;11.18;5.55;;;;;;;15.54;100.00;101311.16;5271231;28;20379;-68
2023/06/14 04:18:46;;;;;;;11.93;6.07;;;;;;;15.54;100.00;101313.84;5264339;28;20024;-68
2023/06/14 04:21:18;;;;;;;14.48;5.90;;;;;;;15.57;100.00;101314.41;5267403;28;20691;-68
2023/06/14 04:23:52;;;;;;;8.70;5.53;;;;;;;15.73;100.00;101316.59;5271344;28;20028;-68
2023/06/14 04:26:29;;;;;;;11.25;5.53;;;;;;;15.62;100.00;101314.81;5268311;28;20566;-68
2023/06/14 04:29:01;;;;;;;8.70;5.20;;;;;;;15.69;100.00;101313.28;5274443;28;20025;-68
2023/06/14 04:31:33;;;;;;;9.27;5.65;;;;;;;15.59;100.00;101322.31;5269838;28;20062;-68
2023/06/14 04:34:05;;;;;;;8.35;5.10;;;;;;;15.59;100.00;101322.31;5264215;28;20119;-67
2023/06/14 04:36:37;;;;;;;8.70;5.70;;;;;;;15.77;100.00;101326.06;5272194;28;20028;-68
2023/06/14 04:39:09;;;;;;;10.77;5.60;;;;;;;15.66;100.00;101320.78;5276371;28;20016;-68
2023/06/14 04:41:41;;;;;;;10.35;5.70;;;;;;;15.73;100.00;101324.66;5275378;28;20054;-68
2023/06/14 04:44:13;;;;;;;10.90;5.43;;;;;;;15.68;100.00;101322.34;5279521;28;20124;-68
2023/06/14 04:46:45;;;;;;;8.82;5.40;;;;;;;15.73;100.00;101323.78;5269267;28;20085;-67
2023/06/14 04:49:17;;;;;;;7.70;5.45;;;;;;;15.79;100.00;101329.47;5271958;28;20028;-68
2023/06/14 04:51:57;;;;;;;9.38;5.50;;;;;;;15.73;100.00;101329.16;5267037;28;20028;-68
2023/06/14 04:54:31;;;;;;;10.02;5.97;;;;;;;15.74;100.00;101320.13;5265258;28;20077;-68
2023/06/14 04:57:03;;;;;;;;;;;;;;;15.87;100.00;101335.00;5263268;28;20042;-67
2023/06/14 04:59:35;;;;;;;9.85;5.55;;;;;;;15.82;100.00;101326.53;5269608;28;19917;-68
2023/06/14 05:02:06;;;;;;;9.20;5.82;;;;;;;15.80;100.00;101325.81;5265835;28;20035;-68
2023/06/14 05:04:39;;;;;;;8.90;5.53;;;;;;;15.91;100.00;101337.44;5277068;28;20494;-68
2023/06/14 05:07:10;;;;;;;10.23;5.47;;;;;;;15.84;100.00;101335.31;5264651;28;20052;-68
2023/06/14 05:09:42;;;;;;;10.18;5.63;;;;;;;15.91;100.00;101340.97;5272449;28;20438;-68
2023/06/14 05:12:17;;;;;;;12.20;5.80;;;;;;;15.89;100.00;101342.94;5274368;28;20060;-68
2023/06/14 05:14:49;;;;;;;8.93;6.25;;;;;;;15.93;100.00;101340.81;5273234;28;20079;-68
2023/06/14 05:17:21;;;;;;;13.80;6.28;;;;;;;16.05;100.00;101339.69;5265417;28;20033;-68
2023/06/14 05:19:52;;;;;;;10.70;6.05;;;;;;;15.99;100.00;101346.50;5270775;28;20454;-68
2023/06/14 05:22:24;;;;;;;9.25;6.30;;;;;;;16.02;100.00;101348.06;5265434;28;20040;-69
2023/06/14 05:24:55;;;;;;;8.70;5.85;;;;;;;16.11;100.00;101346.34;5264108;28;20414;-68
2023/06/14 05:27:27;;;;;;;12.18;6.20;;;;;;;16.08;100.00;101347.50;5271160;28;20024;-68
2023/06/14 05:29:58;;;;;;;11.15;5.45;;;;;;;16.10;100.00;101344.66;5272074;28;20429;-68
2023/06/14 05:32:31;;;;;;;12.80;6.13;;;;;;;16.19;100.00;101344.66;5272075;28;20807;-67
2023/06/14 05:35:03;;;;;;;7.60;5.38;;;;;;;16.19;100.00;101343.81;5271318;28;20039;-68
2023/06/14 05:37:35;;;;;;;8.02;5.32;;;;;;;16.26;100.00;101342.25;5270393;28;20062;-68
2023/06/14 05:40:08;;;;;;;11.00;5.35;;;;;;;16.26;100.00;101353.88;5272678;28;20028;-68
2023/06/14 05:42:40;;;;;;;12.45;5.85;;;;;;;16.26;100.00;101345.81;5264571;28;20045;-68
2023/06/14 05:45:11;;;;;;;14.65;5.70;;;;;;;16.31;100.00;101355.28;5270596;28;20091;-68
2023/06/14 05:47:43;;;;;;;26.77;6.70;;;;;;;16.40;100.00;101362.53;5268324;28;20024;-68
2023/06/14 05:50:14;;;;;;;14.52;5.40;;;;;;;16.41;100.00;101359.66;5267724;28;20039;-68
2023/06/14 05:52:45;;;;;;;12.25;5.38;;;;;;;16.49;100.00;101358.94;5271688;28;20040;-68
2023/06/14 05:55:17;;;;;;;9.40;5.25;;;;;;;16.46;100.00;101356.56;5274104;28;20477;-68
2023/06/14 05:57:48;;;;;;;15.25;5.22;;;;;;;16.50;100.00;101363.34;5262912;28;21183;-68
2023/06/14 06:00:20;;;;;;;14.35;5.93;;;;;;;16.61;100.00;101368.59;5271683;28;20463;-68
2023/06/14 06:02:51;;;;;;;19.77;5.75;;;;;;;16.63;100.00;101376.53;5264372;28;20060;-68
2023/06/14 06:05:23;;;;;;;9.82;5.00;;;;;;;16.72;100.00;101382.88;5267315;28;20065;-68
2023/06/14 06:07:55;;;;;;;11.30;5.35;;;;;;;16.76;100.00;101366.31;5268357;28;20036;-68
2023/06/14 06:10:27;;;;;;;24.98;6.57;;;;;;;16.81;100.00;101377.47;5270552;28;20479;-68
2023/06/14 06:12:58;;;;;;;15.02;5.75;;;;;;;16.90;100.00;101373.09;5269325;28;20116;-68
2023/06/14 06:15:30;;;;;;;10.65;5.20;;;;;;;16.94;100.00;101379.91;5267826;28;20056;-68
2023/06/14 06:18:01;;;;;;;7.85;4.43;;;;;;;17.05;100.00;101384.28;5262151;28;20052;-68
2023/06/14 06:20:33;;;;;;;11.73;5.22;;;;;;;17.15;100.00;101376.16;5268925;28;20075;-68
2023/06/14 06:23:04;;;;;;;14.80;4.93;;;;;;;17.27;100.00;101387.59;5272535;28;20162;-68
2023/06/14 06:25:35;;;;;;;7.95;4.70;;;;;;;17.37;100.00;101391.97;5263202;28;20024;-68
2023/06/14 06:28:07;;;;;;;8.48;4.30;;;;;;;17.47;100.00;101397.31;5271527;28;20636;-68
2023/06/14 06:30:38;;;;;;;7.43;4.32;;;;;;;17.59;100.00;101397.97;5266303;28;20655;-68
2023/06/14 06:33:10;;;;;;;5.30;4.10;;;;;;;17.68;100.00;101397.06;5269892;28;20040;-68
2023/06/14 06:35:42;;;;;;;12.18;4.32;;;;;;;17.80;100.00;101401.25;5258724;28;20111;-68
2023/06/14 06:38:14;;;;;;;11.02;4.32;;;;;;;17.89;100.00;101404.06;5264431;28;20482;-68
2023/06/14 06:40:45;;;;;;;9.40;4.20;;;;;;;18.06;100.00;101413.19;5260971;28;20726;-69
2023/06/14 06:43:17;;;;;;;14.70;4.90;;;;;;;18.12;100.00;101405.34;5266579;28;20028;-69
2023/06/14 06:45:49;;;;;;;7.43;3.85;;;;;;;18.25;100.00;101404.97;5270485;28;20059;-68
2023/06/14 06:48:20;;;;;;;14.63;4.47;;;;;;;18.37;100.00;101410.97;5264018;28;20024;-68
2023/06/14 06:50:52;;;;;;;5.97;3.50;;;;;;;18.49;100.00;101411.63;5264936;28;20030;-68
2023/06/14 06:53:23;;;;;;;6.50;3.83;;;;;;;18.57;100.00;101417.91;5267168;28;20039;-68
2023/06/14 06:55:55;;;;;;;6.25;3.88;;;;;;;18.65;100.00;101419.84;5261976;28;20025;-68
2023/06/14 06:58:27;;;;;;;15.65;4.72;;;;;;;18.76;100.00;101422.31;5267921;28;20183;-68
2023/06/14 07:00:58;;;;;;;10.15;3.70;;;;;;;18.85;100.00;101414.28;5268456;28;20761;-68
2023/06/14 07:03:30;;;;;;;19.30;4.65;;;;;;;19.05;100.00;101420.34;5267685;28;20100;-68
2023/06/14 07:06:01;;;;;;;11.50;4.32;;;;;;;19.20;100.00;101419.59;5266309;28;20032;-69
2023/06/14 07:08:33;;;;;;;8.45;4.15;;;;;;;19.35;100.00;101422.56;5267249;28;20056;-68
2023/06/14 07:11:05;;;;;;;11.40;4.00;;;;;;;19.42;100.00;101428.16;5265230;28;20044;-68
2023/06/14 07:13:36;;;;;;;10.52;4.47;;;;;;;19.46;100.00;101428.69;5269417;28;20032;-68
2023/06/14 07:16:08;;;;;;;19.85;5.45;;;;;;;19.49;100.00;101433.78;5265121;28;20356;-68
2023/06/14 07:18:39;;;;;;;13.43;3.88;;;;;;;19.74;100.00;101437.50;5268231;28;20052;-68
2023/06/14 07:21:10;;;;;;;11.77;4.00;;;;;;;19.88;100.00;101433.31;5264812;28;20466;-69
2023/06/14 07:23:42;;;;;;;22.15;5.60;;;;;;;19.90;100.00;101437.53;5266305;28;20059;-73
2023/06/14 07:26:13;;;;;;;22.67;5.60;;;;;;;19.94;100.00;101432.63;5266319;28;20024;-69
2023/06/14 07:28:45;;;;;;;11.73;4.07;;;;;;;20.10;100.00;101442.69;5267644;28;20025;-68
2023/06/14 07:31:19;;;;;;;16.15;4.80;;;;;;;20.20;100.00;101448.81;5266532;28;20057;-69
2023/06/14 07:33:50;;;;;;;10.70;3.80;;;;;;;20.28;100.00;101453.41;5265239;28;20052;-67
2023/06/14 07:36:22;;;;;;;12.32;4.07;;;;;;;20.33;100.00;101451.03;5267770;28;20275;-69
2023/06/14 07:38:53;;;;;;;5.43;3.30;;;;;;;20.42;100.00;101447.31;5265478;28;20033;-69
2023/06/14 07:41:25;;;;;;;5.80;3.50;;;;;;;20.67;100.00;101453.66;5266365;28;20036;-69
2023/06/14 07:43:57;;;;;;;6.60;3.55;;;;;;;20.76;100.00;101451.78;5260344;28;20065;-69
2023/06/14 07:46:28;;;;;;;6.70;3.30;;;;;;;20.81;100.00;101457.53;5267187;28;20905;-69
2023/06/14 07:49:00;;;;;;;6.07;3.50;;;;;;;21.01;100.00;101459.91;5269363;28;20032;-69
2023/06/14 07:51:31;;;;;;;8.77;3.83;;;;;;;21.04;100.00;101465.84;5267878;28;20446;-68
2023/06/14 07:54:03;;;;;;;8.55;3.75;;;;;;;21.13;100.00;101459.41;5268870;28;20532;-69
2023/06/14 07:56:35;;;;;;;8.80;3.50;;;;;;;21.23;100.00;101467.34;5266321;28;20028;-68
2023/06/14 07:59:07;;;;;;;7.55;3.60;;;;;;;21.30;100.00;101462.91;5265903;28;20505;-68
2023/06/14 08:01:39;;;;;;;10.18;4.47;;;;;;;21.40;100.00;101467.28;5269963;28;20020;-68
2023/06/14 08:04:11;;;;;;;13.25;4.00;;;;;;;21.51;100.00;101465.09;5263815;28;20027;-69
2023/06/14 08:06:45;;;;;;;12.20;3.50;;;;;;;21.51;100.00;101475.09;5263608;28;20047;-68
2023/06/14 08:09:17;;;;;;;19.65;4.75;;;;;;;21.76;100.00;101485.88;5269422;28;20506;-68
2023/06/14 08:11:48;;;;;;;12.38;3.80;;;;;;;21.77;100.00;101480.28;5264401;28;20118;-68
2023/06/14 08:14:19;;;;;;;5.45;2.83;;;;;;;21.79;97.95;101488.28;5263173;28;20029;-68
2023/06/14 08:16:51;;;;;;;9.68;3.22;;;;;;;21.93;93.73;101479.38;5265950;28;20094;-68
2023/06/14 08:19:22;;;;;;;8.30;2.83;;;;;;;22.04;91.75;101475.41;5265067;28;20056;-68
2023/06/14 08:21:55;;;;;;;8.82;3.38;;;;;;;22.08;93.50;101479.47;5267533;28;20028;-67
2023/06/14 08:24:29;;;;;;;7.05;3.10;;;;;;;22.27;94.69;101467.34;5266418;28;20028;-68
2023/06/14 08:27:01;;;;;;;9.85;3.25;;;;;;;22.39;96.21;101475.94;5265509;28;20438;-67
2023/06/14 08:29:32;;;;;;;6.07;3.00;;;;;;;22.32;94.80;101473.06;5263360;28;20040;-68
2023/06/14 08:32:04;;;;;;;9.77;3.72;;;;;;;22.48;93.18;101467.53;5267081;28;20024;-68
2023/06/14 08:34:35;;;;;;;17.25;4.90;;;;;;;22.59;95.04;101462.69;5269450;28;20032;-67
2023/06/14 08:37:07;;;;;;;14.88;3.97;;;;;;;22.64;88.78;101473.88;5270442;28;20021;-68
2023/06/14 08:39:39;;;;;;;56.47;10.82;;;;;;;22.76;91.91;101466.13;5267354;28;20461;-68
2023/06/14 08:42:10;;;;;;;8.00;3.20;;;;;;;22.83;90.58;101473.38;5271409;28;20044;-68
2023/06/14 08:44:42;;;;;;;23.58;5.88;;;;;;;22.93;90.56;101477.72;5269668;28;20039;-68
2023/06/14 08:47:15;;;;;;;6.70;3.00;;;;;;;22.94;89.82;101468.53;5267946;28;20025;-68
2023/06/14 08:49:47;;;;;;;5.85;2.35;;;;;;;23.09;90.21;101473.03;5275559;28;20033;-68
2023/06/14 08:52:20;;;;;;;9.43;2.42;;;;;;;23.10;89.79;101476.56;5274441;28;20047;-68
2023/06/14 08:54:52;;;;;;;8.23;2.80;;;;;;;23.22;90.90;101461.50;5273335;28;20035;-68
2023/06/14 08:57:25;;;;;;;8.60;3.03;;;;;;;23.20;88.76;101463.53;5272509;28;20286;-68
2023/06/14 08:59:56;;;;;;;12.10;3.65;;;;;;;23.35;88.32;101466.28;5274243;28;20032;-68
2023/06/14 09:02:29;;;;;;;6.03;2.15;;;;;;;23.39;84.79;101469.47;5268187;28;20077;-68
2023/06/14 09:05:00;;;;;;;8.63;2.90;;;;;;;23.36;86.37;101484.31;5274681;28;20491;-68
2023/06/14 09:07:32;;;;;;;5.32;2.13;;;;;;;23.54;82.04;101475.78;5270332;28;20048;-68
2023/06/14 09:10:15;;;;;;;5.35;2.00;;;;;;;23.55;77.03;101469.31;5276839;28;20032;-68
2023/06/14 09:12:47;;;;;;;5.00;2.30;;;;;;;23.65;75.24;101477.19;5276298;28;20020;-68
2023/06/14 09:15:18;;;;;;;6.50;2.10;;;;;;;23.87;80.35;101473.56;5276495;28;20024;-68
2023/06/14 09:17:51;;;;;;;6.03;2.10;;;;;;;23.76;76.54;101470.41;5268416;28;20389;-68
2023/06/14 09:20:24;;;;;;;4.18;1.92;;;;;;;23.73;78.58;101465.34;5269643;28;20098;-68
2023/06/14 09:22:55;;;;;;;5.43;2.28;;;;;;;23.92;77.75;101472.97;5269293;28;20024;-68
2023/06/14 09:25:27;;;;;;;6.78;2.00;;;;;;;23.98;77.87;101476.81;5270462;28;20343;-69
2023/06/14 09:27:58;;;;;;;4.10;2.03;;;;;;;24.04;79.72;101468.72;5271886;28;20035;-69
2023/06/14 09:30:30;;;;;;;5.53;2.10;;;;;;;24.07;75.46;101478.41;5274622;28;20040;-68
2023/06/14 09:33:01;;;;;;;5.63;1.90;;;;;;;24.25;74.03;101476.09;5273446;28;20035;-68
2023/06/14 09:35:33;;;;;;;6.03;1.80;;;;;;;24.32;74.98;101475.34;5268895;28;20379;-68
2023/06/14 09:38:04;;;;;;;3.35;1.60;;;;;;;24.35;71.41;101483.13;5273002;28;20032;-69
2023/06/14 09:40:36;;;;;;;4.25;1.63;;;;;;;24.32;67.59;101475.34;5268835;28;20032;-69
2023/06/14 09:43:09;;;;;;;3.42;1.52;;;;;;;24.36;65.82;101488.38;5272677;28;20042;-69
2023/06/14 09:45:45;;;;;;;3.55;1.50;;;;;;;24.37;66.85;101481.88;5271317;28;20025;-69
2023/06/14 09:48:17;;;;;;;3.35;1.20;;;;;;;24.49;67.57;101484.09;5268083;28;20060;-68
2023/06/14 09:50:50;;;;;;;4.13;1.10;;;;;;;24.46;72.61;101491.63;5268477;28;20143;-69
2023/06/14 09:53:23;;;;;;;3.50;1.30;;;;;;;24.60;65.94;101487.22;5274916;28;20486;-68
2023/06/14 09:55:56;;;;;;;2.20;0.85;;;;;;;24.67;63.59;101484.53;5266134;28;20479;-69
2023/06/14 09:58:30;;;;;;;3.97;1.45;;;;;;;24.58;67.00;101480.25;5267204;28;20029;-69
2023/06/14 10:01:03;;;;;;;2.85;1.20;;;;;;;24.59;67.66;101482.78;5272741;28;20025;-69
2023/06/14 10:03:37;;;;;;;2.63;1.20;;;;;;;24.63;63.01;101477.78;5263829;28;20103;-69
2023/06/14 10:06:10;;;;;;;4.95;1.45;;;;;;;24.81;62.77;101464.53;5270815;28;20295;-69
2023/06/14 10:08:42;;;;;;;5.38;1.40;;;;;;;24.77;64.35;101476.84;5266538;28;20049;-70
2023/06/14 10:11:13;;;;;;;5.93;1.48;;;;;;;24.90;61.75;101470.66;5268531;28;20040;-69
2023/06/14 10:13:45;;;;;;;3.17;1.30;;;;;;;24.83;62.97;101477.94;5271653;28;20081;-69
2023/06/14 10:16:24;;;;;;;3.60;1.20;;;;;;;24.85;61.90;101473.13;5267374;28;20031;-69
2023/06/14 10:19:11;;;;;;;5.40;1.40;;;;;;;24.99;64.16;101466.75;5264122;28;20402;-69
2023/06/14 10:22:02;;;;;;;3.15;1.20;;;;;;;24.94;67.27;101466.50;5263761;28;20028;-69
2023/06/14 10:24:40;;;;;;;4.45;1.50;;;;;;;24.99;65.07;101471.38;5269460;28;20048;-68
2023/06/14 10:27:17;;;;;;;3.83;1.50;;;;;;;25.00;64.23;101476.63;5271331;28;20075;-70
2023/06/14 10:29:55;;;;;;;3.38;1.33;;;;;;;24.95;60.90;101465.47;5269584;28;20043;-71
2023/06/14 10:32:30;;;;;;;2.55;1.40;;;;;;;25.01;62.58;101472.88;5271069;28;20025;-70
2023/06/14 10:35:01;;;;;;;4.57;1.50;;;;;;;25.10;64.22;101468.09;5273061;28;20390;-70
2023/06/14 10:37:33;;;;;;;5.07;1.40;;;;;;;25.03;65.38;101473.50;5274299;28;20021;-70
2023/06/14 10:40:08;;;;;;;3.25;1.30;;;;;;;25.06;59.76;101472.25;5271950;28;20020;-71
2023/06/14 10:42:51;;;;;;;2.97;1.20;;;;;;;25.21;65.70;101478.47;5268454;28;20028;-70
2023/06/14 10:45:22;;;;;;;3.45;1.55;;;;;;;25.15;60.92;101479.28;5271591;28;20032;-69
2023/06/14 10:47:57;;;;;;;3.13;1.40;;;;;;;25.18;60.17;101476.16;5271458;28;20085;-69
2023/06/14 10:50:29;;;;;;;3.15;1.80;;;;;;;25.16;60.54;101467.31;5271029;28;20024;-69
2023/06/14 10:53:26;;;;;;;2.78;1.50;;;;;;;25.30;65.24;101471.00;5269083;28;20033;-69
2023/06/14 10:56:06;;;;;;;2.95;1.23;;;;;;;25.33;63.53;101478.81;5274707;28;20024;-69
2023/06/14 10:58:38;;;;;;;3.65;1.70;;;;;;;25.29;66.67;101479.41;5273602;28;20043;-69
2023/06/14 11:01:10;;;;;;;3.28;1.55;;;;;;;25.29;68.20;101485.69;5270793;28;20028;-69
2023/06/14 11:03:52;;;;;;;4.63;1.67;;;;;;;25.38;65.49;101484.50;5271992;28;20378;-69
2023/06/14 11:06:36;;;;;;;2.78;1.60;;;;;;;25.37;67.05;101474.66;5271378;28;20482;-69
2023/06/14 11:09:37;;;;;;;4.22;1.60;;;;;;;25.39;67.16;101479.88;5272391;28;20890;-69
2023/06/14 11:12:11;;;;;;;3.78;1.65;;;;;;;25.44;62.57;101472.78;5267363;28;20380;-69
2023/06/14 11:14:46;;;;;;;3.90;1.58;;;;;;;25.39;63.03;101482.63;5274051;28;20020;-69
2023/06/14 11:17:17;;;;;;;2.65;1.30;;;;;;;25.37;61.27;101468.31;5273851;28;20029;-69
2023/06/14 11:19:49;;;;;;;5.28;2.00;;;;;;;25.45;62.98;101465.44;5274160;28;20376;-69
2023/06/14 11:22:20;;;;;;;6.95;1.70;;;;;;;25.45;65.65;101465.44;5273070;28;20042;-69
2023/06/14 11:24:52;;;;;;;3.47;1.65;;;;;;;25.61;64.65;101461.53;5272388;28;20116;-69
2023/06/14 11:27:27;;;;;;;4.60;1.67;;;;;;;25.75;60.18;101467.91;5274259;28;20086;-69
2023/06/14 11:29:58;;;;;;;3.80;1.52;;;;;;;25.58;63.82;101459.19;5273857;28;20036;-69
2023/06/14 11:32:31;;;;;;;4.15;1.40;;;;;;;25.56;60.17;101466.75;5271366;28;20038;-69
2023/06/14 11:35:04;;;;;;;3.80;1.53;;;;;;;25.53;58.37;101450.78;5270101;28;20051;-69
2023/06/14 11:37:39;;;;;;;2.55;1.50;;;;;;;25.55;61.06;101451.41;5273408;28;20032;-69
2023/06/14 11:40:12;;;;;;;4.82;1.77;;;;;;;25.60;59.81;101463.44;5272047;28;20130;-69
2023/06/14 11:42:43;;;;;;;4.90;1.43;;;;;;;25.67;65.94;101462.63;5272786;28;20032;-69